sensor_id;sensor_type;location;lat;lon;timestamp;temperature;humidity
62007;DHT22;47963;53.008;6.754;2022-11-15T00:00:28;7.90;99.90
62007;DHT22;47963;53.008;6.754;2022-11-15T00:02:54;8.00;99.90
62007;DHT22;47963;53.008;6.754;2022-11-15T00:05:20;7.90;99.90
62007;DHT22;47963;53.008;6.754;2022-11-15T00:07:45;7.90;99.90
62007;DHT22;47963;53.008;6.754;2022-11-15T00:10:11;7.80;99.90
62007;DHT22;47963;53.008;6.754;2022-11-15T00:12:37;7.80;99.90
62007;DHT22;47963;53.008;6.754;2022-11-15T00:15:03;7.80;99.90
62007;DHT22;47963;53.008;6.754;2022-11-15T00:17:29;7.70;99.90
62007;DHT22;47963;53.008;6.754;2022-11-15T00:19:55;7.70;99.90
62007;DHT22;47963;53.008;6.754;2022-11-15T00:22:21;7.70;99.90
62007;DHT22;47963;53.008;6.754;2022-11-15T00:24:47;7.70;99.90
62007;DHT22;47963;53.008;6.754;2022-11-15T00:27:13;7.70;99.90
62007;DHT22;47963;53.008;6.754;2022-11-15T00:29:38;7.70;99.90
62007;DHT22;47963;53.008;6.754;2022-11-15T00:32:09;7.70;99.90
62007;DHT22;47963;53.008;6.754;2022-11-15T00:34:34;7.70;99.90
62007;DHT22;47963;53.008;6.754;2022-11-15T00:37:00;7.70;99.90
62007;DHT22;47963;53.008;6.754;2022-11-15T00:39:26;7.70;99.90
62007;DHT22;47963;53.008;6.754;2022-11-15T00:41:51;7.80;99.90
62007;DHT22;47963;53.008;6.754;2022-11-15T00:44:17;7.80;99.90
62007;DHT22;47963;53.008;6.754;2022-11-15T00:46:42;7.80;99.90
62007;DHT22;47963;53.008;6.754;2022-11-15T00:49:08;7.80;99.90
62007;DHT22;47963;53.008;6.754;2022-11-15T00:51:34;7.80;99.90
62007;DHT22;47963;53.008;6.754;2022-11-15T00:53:59;7.80;99.90
62007;DHT22;47963;53.008;6.754;2022-11-15T00:56:25;7.80;99.90
62007;DHT22;47963;53.008;6.754;2022-11-15T00:58:50;7.80;99.90
62007;DHT22;47963;53.008;6.754;2022-11-15T01:01:17;7.80;99.90
62007;DHT22;47963;53.008;6.754;2022-11-15T01:03:43;7.90;99.90
62007;DHT22;47963;53.008;6.754;2022-11-15T01:06:09;7.90;99.90
62007;DHT22;47963;53.008;6.754;2022-11-15T01:08:35;7.90;99.90
62007;DHT22;47963;53.008;6.754;2022-11-15T01:11:06;7.90;99.90
62007;DHT22;47963;53.008;6.754;2022-11-15T01:13:33;7.90;99.90
62007;DHT22;47963;53.008;6.754;2022-11-15T01:16:12;7.90;99.90
62007;DHT22;47963;53.008;6.754;2022-11-15T01:18:39;7.90;99.90
62007;DHT22;47963;53.008;6.754;2022-11-15T01:21:09;7.90;99.90
62007;DHT22;47963;53.008;6.754;2022-11-15T01:23:35;7.90;99.90
62007;DHT22;47963;53.008;6.754;2022-11-15T01:26:03;7.90;99.90
62007;DHT22;47963;53.008;6.754;2022-11-15T01:28:31;7.90;99.90
62007;DHT22;47963;53.008;6.754;2022-11-15T01:31:00;7.90;99.90
62007;DHT22;47963;53.008;6.754;2022-11-15T01:33:27;7.90;99.90
62007;DHT22;47963;53.008;6.754;2022-11-15T01:35:54;7.90;99.90
62007;DHT22;47963;53.008;6.754;2022-11-15T01:38:19;7.90;99.90
62007;DHT22;47963;53.008;6.754;2022-11-15T01:40:45;7.90;99.90
62007;DHT22;47963;53.008;6.754;2022-11-15T01:43:29;7.90;99.90
62007;DHT22;47963;53.008;6.754;2022-11-15T01:46:26;7.90;99.90
62007;DHT22;47963;53.008;6.754;2022-11-15T01:48:53;8.00;99.90
62007;DHT22;47963;53.008;6.754;2022-11-15T01:51:24;7.90;99.90
62007;DHT22;47963;53.008;6.754;2022-11-15T01:53:55;8.00;99.90
62007;DHT22;47963;53.008;6.754;2022-11-15T01:56:28;7.90;99.90
62007;DHT22;47963;53.008;6.754;2022-11-15T01:58:56;8.00;99.90
62007;DHT22;47963;53.008;6.754;2022-11-15T02:01:24;8.00;99.90
62007;DHT22;47963;53.008;6.754;2022-11-15T02:04:04;8.00;99.90
62007;DHT22;47963;53.008;6.754;2022-11-15T02:06:32;8.00;99.90
62007;DHT22;47963;53.008;6.754;2022-11-15T02:08:59;8.00;99.90
62007;DHT22;47963;53.008;6.754;2022-11-15T02:11:26;8.00;99.90
62007;DHT22;47963;53.008;6.754;2022-11-15T02:13:51;8.00;99.90
62007;DHT22;47963;53.008;6.754;2022-11-15T02:27:52;8.00;99.90
62007;DHT22;47963;53.008;6.754;2022-11-15T02:33:41;8.00;99.90
62007;DHT22;47963;53.008;6.754;2022-11-15T02:36:43;8.00;99.90
62007;DHT22;47963;53.008;6.754;2022-11-15T02:39:39;8.10;99.90
62007;DHT22;47963;53.008;6.754;2022-11-15T02:42:11;8.10;99.90
62007;DHT22;47963;53.008;6.754;2022-11-15T02:44:58;8.10;99.90
62007;DHT22;47963;53.008;6.754;2022-11-15T02:47:30;8.10;99.90
62007;DHT22;47963;53.008;6.754;2022-11-15T02:49:59;8.10;99.90
62007;DHT22;47963;53.008;6.754;2022-11-15T02:52:26;8.10;99.90
62007;DHT22;47963;53.008;6.754;2022-11-15T02:58:08;8.10;99.90
62007;DHT22;47963;53.008;6.754;2022-11-15T03:00:13;8.10;99.90
62007;DHT22;47963;53.008;6.754;2022-11-15T03:05:53;8.10;99.90
62007;DHT22;47963;53.008;6.754;2022-11-15T03:08:34;8.10;99.90
62007;DHT22;47963;53.008;6.754;2022-11-15T03:11:28;8.10;99.90
62007;DHT22;47963;53.008;6.754;2022-11-15T03:17:12;8.20;99.90
62007;DHT22;47963;53.008;6.754;2022-11-15T03:19:46;8.10;99.90
62007;DHT22;47963;53.008;6.754;2022-11-15T03:22:19;8.20;99.90
62007;DHT22;47963;53.008;6.754;2022-11-15T03:24:47;8.20;99.90
62007;DHT22;47963;53.008;6.754;2022-11-15T03:27:18;8.20;99.90
62007;DHT22;47963;53.008;6.754;2022-11-15T03:29:53;8.20;99.90
62007;DHT22;47963;53.008;6.754;2022-11-15T03:32:31;8.20;99.90
62007;DHT22;47963;53.008;6.754;2022-11-15T03:37:37;8.20;99.90
62007;DHT22;47963;53.008;6.754;2022-11-15T03:40:05;8.20;99.90
62007;DHT22;47963;53.008;6.754;2022-11-15T03:42:46;8.30;99.90
62007;DHT22;47963;53.008;6.754;2022-11-15T03:45:22;8.30;99.90
62007;DHT22;47963;53.008;6.754;2022-11-15T03:47:53;8.30;99.90
62007;DHT22;47963;53.008;6.754;2022-11-15T03:50:22;8.30;99.90
62007;DHT22;47963;53.008;6.754;2022-11-15T03:52:50;8.30;99.90
62007;DHT22;47963;53.008;6.754;2022-11-15T03:55:18;8.40;99.90
62007;DHT22;47963;53.008;6.754;2022-11-15T03:57:44;8.30;99.90
62007;DHT22;47963;53.008;6.754;2022-11-15T04:00:11;8.40;99.90
62007;DHT22;47963;53.008;6.754;2022-11-15T04:02:37;8.40;99.90
62007;DHT22;47963;53.008;6.754;2022-11-15T04:05:03;8.40;99.90
62007;DHT22;47963;53.008;6.754;2022-11-15T04:07:29;8.40;99.90
62007;DHT22;47963;53.008;6.754;2022-11-15T04:09:55;8.40;99.90
62007;DHT22;47963;53.008;6.754;2022-11-15T04:12:41;8.40;99.90
62007;DHT22;47963;53.008;6.754;2022-11-15T04:15:10;8.40;99.90
62007;DHT22;47963;53.008;6.754;2022-11-15T04:20:12;8.40;99.90
62007;DHT22;47963;53.008;6.754;2022-11-15T04:22:58;8.50;99.90
62007;DHT22;47963;53.008;6.754;2022-11-15T04:25:43;8.50;99.90
62007;DHT22;47963;53.008;6.754;2022-11-15T04:28:10;8.50;99.90
62007;DHT22;47963;53.008;6.754;2022-11-15T04:30:36;8.50;99.90
62007;DHT22;47963;53.008;6.754;2022-11-15T04:33:02;8.60;99.90
62007;DHT22;47963;53.008;6.754;2022-11-15T04:35:28;8.60;99.90
62007;DHT22;47963;53.008;6.754;2022-11-15T04:37:54;8.60;99.90
62007;DHT22;47963;53.008;6.754;2022-11-15T04:40:20;8.60;99.90
62007;DHT22;47963;53.008;6.754;2022-11-15T04:42:45;8.70;99.90
62007;DHT22;47963;53.008;6.754;2022-11-15T04:45:11;8.70;99.90
62007;DHT22;47963;53.008;6.754;2022-11-15T04:47:37;8.70;99.90
62007;DHT22;47963;53.008;6.754;2022-11-15T04:50:03;8.70;99.90
62007;DHT22;47963;53.008;6.754;2022-11-15T04:52:29;8.80;99.90
62007;DHT22;47963;53.008;6.754;2022-11-15T04:54:54;8.80;99.90
62007;DHT22;47963;53.008;6.754;2022-11-15T04:57:20;8.80;99.90
62007;DHT22;47963;53.008;6.754;2022-11-15T04:59:46;8.80;99.90
62007;DHT22;47963;53.008;6.754;2022-11-15T05:02:11;8.80;99.90
62007;DHT22;47963;53.008;6.754;2022-11-15T05:04:37;8.90;99.90
62007;DHT22;47963;53.008;6.754;2022-11-15T05:07:03;8.90;99.90
62007;DHT22;47963;53.008;6.754;2022-11-15T05:09:31;8.90;99.90
62007;DHT22;47963;53.008;6.754;2022-11-15T05:11:57;8.90;99.90
62007;DHT22;47963;53.008;6.754;2022-11-15T05:14:22;9.00;99.90
62007;DHT22;47963;53.008;6.754;2022-11-15T05:16:48;9.00;99.90
62007;DHT22;47963;53.008;6.754;2022-11-15T05:19:14;9.00;99.90
62007;DHT22;47963;53.008;6.754;2022-11-15T05:21:39;9.00;99.90
62007;DHT22;47963;53.008;6.754;2022-11-15T05:24:05;9.00;99.90
62007;DHT22;47963;53.008;6.754;2022-11-15T05:26:31;9.00;99.90
62007;DHT22;47963;53.008;6.754;2022-11-15T05:28:58;9.00;99.90
62007;DHT22;47963;53.008;6.754;2022-11-15T05:31:25;9.00;99.90
62007;DHT22;47963;53.008;6.754;2022-11-15T05:33:51;9.00;99.90
62007;DHT22;47963;53.008;6.754;2022-11-15T05:36:24;9.00;99.90
62007;DHT22;47963;53.008;6.754;2022-11-15T05:38:51;9.00;99.90
62007;DHT22;47963;53.008;6.754;2022-11-15T05:41:25;9.00;99.90
62007;DHT22;47963;53.008;6.754;2022-11-15T05:43:52;9.00;99.90
62007;DHT22;47963;53.008;6.754;2022-11-15T05:46:19;9.00;99.90
62007;DHT22;47963;53.008;6.754;2022-11-15T05:48:48;9.10;99.90
62007;DHT22;47963;53.008;6.754;2022-11-15T05:51:16;9.10;99.90
62007;DHT22;47963;53.008;6.754;2022-11-15T05:53:43;9.10;99.90
62007;DHT22;47963;53.008;6.754;2022-11-15T05:56:09;9.10;99.90
62007;DHT22;47963;53.008;6.754;2022-11-15T05:58:36;9.10;99.90
62007;DHT22;47963;53.008;6.754;2022-11-15T06:01:02;9.10;99.90
62007;DHT22;47963;53.008;6.754;2022-11-15T06:03:28;9.10;99.90
62007;DHT22;47963;53.008;6.754;2022-11-15T06:05:54;9.20;99.90
62007;DHT22;47963;53.008;6.754;2022-11-15T06:08:20;9.20;99.90
62007;DHT22;47963;53.008;6.754;2022-11-15T06:10:45;9.20;99.90
62007;DHT22;47963;53.008;6.754;2022-11-15T06:13:11;9.30;99.90
62007;DHT22;47963;53.008;6.754;2022-11-15T06:15:36;9.20;99.90
62007;DHT22;47963;53.008;6.754;2022-11-15T06:18:02;9.30;99.90
62007;DHT22;47963;53.008;6.754;2022-11-15T06:20:29;9.30;99.90
62007;DHT22;47963;53.008;6.754;2022-11-15T06:22:58;9.30;99.90
62007;DHT22;47963;53.008;6.754;2022-11-15T06:25:25;9.30;99.90
62007;DHT22;47963;53.008;6.754;2022-11-15T06:27:52;9.40;99.90
62007;DHT22;47963;53.008;6.754;2022-11-15T06:30:18;9.40;99.90
62007;DHT22;47963;53.008;6.754;2022-11-15T06:32:44;9.40;99.90
62007;DHT22;47963;53.008;6.754;2022-11-15T06:35:09;9.40;99.90
62007;DHT22;47963;53.008;6.754;2022-11-15T06:37:35;9.40;99.90
62007;DHT22;47963;53.008;6.754;2022-11-15T06:40:01;9.50;99.90
62007;DHT22;47963;53.008;6.754;2022-11-15T06:42:26;9.50;99.90
62007;DHT22;47963;53.008;6.754;2022-11-15T06:44:52;9.50;99.90
62007;DHT22;47963;53.008;6.754;2022-11-15T06:47:17;9.60;99.90
62007;DHT22;47963;53.008;6.754;2022-11-15T06:49:43;9.60;99.90
62007;DHT22;47963;53.008;6.754;2022-11-15T06:52:09;9.60;99.90
62007;DHT22;47963;53.008;6.754;2022-11-15T06:54:34;9.60;99.90
62007;DHT22;47963;53.008;6.754;2022-11-15T06:57:00;9.70;99.90
62007;DHT22;47963;53.008;6.754;2022-11-15T06:59:26;9.70;99.90
62007;DHT22;47963;53.008;6.754;2022-11-15T07:01:51;9.80;99.90
62007;DHT22;47963;53.008;6.754;2022-11-15T07:04:17;9.80;99.90
62007;DHT22;47963;53.008;6.754;2022-11-15T07:06:42;9.80;99.90
62007;DHT22;47963;53.008;6.754;2022-11-15T07:09:11;9.80;99.90
62007;DHT22;47963;53.008;6.754;2022-11-15T07:11:36;9.90;99.90
62007;DHT22;47963;53.008;6.754;2022-11-15T07:14:02;9.90;99.90
62007;DHT22;47963;53.008;6.754;2022-11-15T07:16:28;9.90;99.90
62007;DHT22;47963;53.008;6.754;2022-11-15T07:18:53;9.90;99.90
62007;DHT22;47963;53.008;6.754;2022-11-15T07:21:19;10.00;99.90
62007;DHT22;47963;53.008;6.754;2022-11-15T07:23:44;10.00;99.90
62007;DHT22;47963;53.008;6.754;2022-11-15T07:26:10;10.10;99.90
62007;DHT22;47963;53.008;6.754;2022-11-15T07:28:36;10.10;99.90
62007;DHT22;47963;53.008;6.754;2022-11-15T07:31:06;10.10;99.90
62007;DHT22;47963;53.008;6.754;2022-11-15T07:33:33;10.20;99.90
62007;DHT22;47963;53.008;6.754;2022-11-15T07:36:02;10.20;99.90
62007;DHT22;47963;53.008;6.754;2022-11-15T07:38:29;10.20;99.90
62007;DHT22;47963;53.008;6.754;2022-11-15T07:40:59;10.30;99.90
62007;DHT22;47963;53.008;6.754;2022-11-15T07:43:25;10.30;99.90
62007;DHT22;47963;53.008;6.754;2022-11-15T07:45:53;10.30;99.90
62007;DHT22;47963;53.008;6.754;2022-11-15T07:48:19;10.30;99.90
62007;DHT22;47963;53.008;6.754;2022-11-15T07:50:44;10.50;99.90
62007;DHT22;47963;53.008;6.754;2022-11-15T07:53:10;10.40;99.90
62007;DHT22;47963;53.008;6.754;2022-11-15T07:55:36;10.50;99.90
62007;DHT22;47963;53.008;6.754;2022-11-15T07:58:07;10.40;99.90
62007;DHT22;47963;53.008;6.754;2022-11-15T08:00:34;10.50;99.90
62007;DHT22;47963;53.008;6.754;2022-11-15T08:03:14;10.50;99.90
62007;DHT22;47963;53.008;6.754;2022-11-15T08:05:41;10.60;99.90
62007;DHT22;47963;53.008;6.754;2022-11-15T08:08:09;10.60;99.90
62007;DHT22;47963;53.008;6.754;2022-11-15T08:10:36;10.60;99.90
62007;DHT22;47963;53.008;6.754;2022-11-15T08:13:07;10.60;99.90
62007;DHT22;47963;53.008;6.754;2022-11-15T08:15:34;10.60;99.90
62007;DHT22;47963;53.008;6.754;2022-11-15T08:18:08;10.60;99.90
62007;DHT22;47963;53.008;6.754;2022-11-15T08:20:34;10.60;99.90
62007;DHT22;47963;53.008;6.754;2022-11-15T08:23:03;10.60;99.90
62007;DHT22;47963;53.008;6.754;2022-11-15T08:25:31;10.60;99.90
62007;DHT22;47963;53.008;6.754;2022-11-15T08:27:58;10.60;99.90
62007;DHT22;47963;53.008;6.754;2022-11-15T08:30:25;10.60;99.90
62007;DHT22;47963;53.008;6.754;2022-11-15T08:32:51;10.70;99.90
62007;DHT22;47963;53.008;6.754;2022-11-15T08:35:18;10.60;99.90
62007;DHT22;47963;53.008;6.754;2022-11-15T08:37:44;10.70;99.90
62007;DHT22;47963;53.008;6.754;2022-11-15T08:40:10;10.70;99.90
62007;DHT22;47963;53.008;6.754;2022-11-15T08:42:36;10.70;99.90
62007;DHT22;47963;53.008;6.754;2022-11-15T08:45:03;10.80;99.90
62007;DHT22;47963;53.008;6.754;2022-11-15T08:47:29;10.80;99.90
62007;DHT22;47963;53.008;6.754;2022-11-15T08:49:54;10.80;99.90
62007;DHT22;47963;53.008;6.754;2022-11-15T08:52:20;10.90;99.90
62007;DHT22;47963;53.008;6.754;2022-11-15T08:54:46;10.90;99.90
62007;DHT22;47963;53.008;6.754;2022-11-15T08:57:12;10.90;99.90
62007;DHT22;47963;53.008;6.754;2022-11-15T08:59:38;10.80;99.90
62007;DHT22;47963;53.008;6.754;2022-11-15T09:02:04;10.90;99.90
62007;DHT22;47963;53.008;6.754;2022-11-15T09:04:29;10.90;99.90
62007;DHT22;47963;53.008;6.754;2022-11-15T09:06:55;11.00;99.90
62007;DHT22;47963;53.008;6.754;2022-11-15T09:09:21;11.00;99.90
62007;DHT22;47963;53.008;6.754;2022-11-15T09:11:47;10.90;99.90
62007;DHT22;47963;53.008;6.754;2022-11-15T09:14:13;11.00;99.90
62007;DHT22;47963;53.008;6.754;2022-11-15T09:16:39;11.00;99.90
62007;DHT22;47963;53.008;6.754;2022-11-15T09:19:05;11.00;99.90
62007;DHT22;47963;53.008;6.754;2022-11-15T09:21:32;11.10;99.90
62007;DHT22;47963;53.008;6.754;2022-11-15T09:23:57;11.10;99.90
62007;DHT22;47963;53.008;6.754;2022-11-15T09:26:23;11.10;99.90
62007;DHT22;47963;53.008;6.754;2022-11-15T09:28:49;11.10;99.90
62007;DHT22;47963;53.008;6.754;2022-11-15T09:31:15;11.20;99.90
62007;DHT22;47963;53.008;6.754;2022-11-15T09:33:43;11.20;99.90
62007;DHT22;47963;53.008;6.754;2022-11-15T09:36:09;11.20;99.90
62007;DHT22;47963;53.008;6.754;2022-11-15T09:38:35;11.30;99.90
62007;DHT22;47963;53.008;6.754;2022-11-15T09:49:09;11.40;99.90
62007;DHT22;47963;53.008;6.754;2022-11-15T09:51:38;11.30;99.90
62007;DHT22;47963;53.008;6.754;2022-11-15T09:57:15;11.40;99.90
62007;DHT22;47963;53.008;6.754;2022-11-15T10:02:53;11.40;99.90
62007;DHT22;47963;53.008;6.754;2022-11-15T10:05:23;11.30;99.90
62007;DHT22;47963;53.008;6.754;2022-11-15T10:10:40;11.40;99.90
62007;DHT22;47963;53.008;6.754;2022-11-15T10:13:20;11.40;99.90
62007;DHT22;47963;53.008;6.754;2022-11-15T10:15:48;11.30;99.90
62007;DHT22;47963;53.008;6.754;2022-11-15T10:18:40;11.30;99.90
62007;DHT22;47963;53.008;6.754;2022-11-15T10:21:20;11.40;99.90
62007;DHT22;47963;53.008;6.754;2022-11-15T10:23:48;11.30;99.90
62007;DHT22;47963;53.008;6.754;2022-11-15T10:26:17;11.40;99.90
62007;DHT22;47963;53.008;6.754;2022-11-15T10:28:42;11.40;99.90
62007;DHT22;47963;53.008;6.754;2022-11-15T10:31:23;11.30;99.90
62007;DHT22;47963;53.008;6.754;2022-11-15T10:33:49;11.40;99.90
62007;DHT22;47963;53.008;6.754;2022-11-15T10:36:18;11.40;99.90
62007;DHT22;47963;53.008;6.754;2022-11-15T10:46:33;11.40;99.90
62007;DHT22;47963;53.008;6.754;2022-11-15T10:52:02;11.40;99.90
62007;DHT22;47963;53.008;6.754;2022-11-15T10:57:07;11.50;99.90
62007;DHT22;47963;53.008;6.754;2022-11-15T10:59:36;11.60;99.90
62007;DHT22;47963;53.008;6.754;2022-11-15T11:02:08;11.60;99.90
62007;DHT22;47963;53.008;6.754;2022-11-15T11:04:51;11.60;99.90
62007;DHT22;47963;53.008;6.754;2022-11-15T11:07:26;11.60;99.90
62007;DHT22;47963;53.008;6.754;2022-11-15T11:12:39;11.70;99.90
62007;DHT22;47963;53.008;6.754;2022-11-15T11:15:12;11.70;99.90
62007;DHT22;47963;53.008;6.754;2022-11-15T11:18:02;11.80;99.90
62007;DHT22;47963;53.008;6.754;2022-11-15T11:20:44;11.80;99.90
62007;DHT22;47963;53.008;6.754;2022-11-15T11:29:41;12.10;99.90
62007;DHT22;47963;53.008;6.754;2022-11-15T11:37:37;12.30;99.90
62007;DHT22;47963;53.008;6.754;2022-11-15T11:40:11;12.40;99.90
62007;DHT22;47963;53.008;6.754;2022-11-15T11:48:26;12.40;99.90
62007;DHT22;47963;53.008;6.754;2022-11-15T11:51:05;12.50;99.90
62007;DHT22;47963;53.008;6.754;2022-11-15T11:53:43;12.70;99.90
62007;DHT22;47963;53.008;6.754;2022-11-15T11:56:28;12.70;99.90
62007;DHT22;47963;53.008;6.754;2022-11-15T11:59:09;12.70;99.90
62007;DHT22;47963;53.008;6.754;2022-11-15T12:01:41;12.80;99.90
62007;DHT22;47963;53.008;6.754;2022-11-15T12:04:42;12.70;99.90
62007;DHT22;47963;53.008;6.754;2022-11-15T12:07:17;12.60;99.90
62007;DHT22;47963;53.008;6.754;2022-11-15T12:09:58;12.40;99.90
62007;DHT22;47963;53.008;6.754;2022-11-15T12:12:35;12.40;99.90
62007;DHT22;47963;53.008;6.754;2022-11-15T12:15:10;12.30;99.90
62007;DHT22;47963;53.008;6.754;2022-11-15T12:17:39;12.30;99.90
62007;DHT22;47963;53.008;6.754;2022-11-15T12:23:06;12.30;99.90
62007;DHT22;47963;53.008;6.754;2022-11-15T12:34:38;12.10;99.90
62007;DHT22;47963;53.008;6.754;2022-11-15T12:45:28;12.10;99.90
62007;DHT22;47963;53.008;6.754;2022-11-15T12:58:49;12.30;99.90
62007;DHT22;47963;53.008;6.754;2022-11-15T13:06:50;12.60;99.90
62007;DHT22;47963;53.008;6.754;2022-11-15T13:12:08;12.80;99.90
62007;DHT22;47963;53.008;6.754;2022-11-15T13:14:51;12.80;99.90
62007;DHT22;47963;53.008;6.754;2022-11-15T13:17:35;12.80;99.90
62007;DHT22;47963;53.008;6.754;2022-11-15T13:22:42;12.80;99.90
62007;DHT22;47963;53.008;6.754;2022-11-15T13:27:48;12.80;99.90
62007;DHT22;47963;53.008;6.754;2022-11-15T13:30:20;12.80;99.90
62007;DHT22;47963;53.008;6.754;2022-11-15T13:32:47;12.80;99.90
62007;DHT22;47963;53.008;6.754;2022-11-15T13:35:21;12.80;99.90
62007;DHT22;47963;53.008;6.754;2022-11-15T13:37:47;12.80;99.90
62007;DHT22;47963;53.008;6.754;2022-11-15T13:42:48;12.70;99.90
62007;DHT22;47963;53.008;6.754;2022-11-15T13:45:16;12.70;99.90
62007;DHT22;47963;53.008;6.754;2022-11-15T13:47:42;12.60;99.90
62007;DHT22;47963;53.008;6.754;2022-11-15T13:50:12;12.70;99.90
62007;DHT22;47963;53.008;6.754;2022-11-15T13:52:40;12.60;99.90
62007;DHT22;47963;53.008;6.754;2022-11-15T13:55:13;12.60;99.90
62007;DHT22;47963;53.008;6.754;2022-11-15T13:57:44;12.60;99.90
62007;DHT22;47963;53.008;6.754;2022-11-15T14:02:55;12.60;99.90
62007;DHT22;47963;53.008;6.754;2022-11-15T14:05:24;12.60;99.90
62007;DHT22;47963;53.008;6.754;2022-11-15T14:07:58;12.60;99.90
62007;DHT22;47963;53.008;6.754;2022-11-15T14:10:35;12.60;99.90
62007;DHT22;47963;53.008;6.754;2022-11-15T14:13:03;12.60;99.90
62007;DHT22;47963;53.008;6.754;2022-11-15T14:15:34;12.60;99.90
62007;DHT22;47963;53.008;6.754;2022-11-15T14:18:00;12.50;99.90
62007;DHT22;47963;53.008;6.754;2022-11-15T14:25:52;12.40;99.90
62007;DHT22;47963;53.008;6.754;2022-11-15T14:28:28;12.40;99.90
62007;DHT22;47963;53.008;6.754;2022-11-15T14:30:58;12.30;99.90
62007;DHT22;47963;53.008;6.754;2022-11-15T14:33:38;12.30;99.90
62007;DHT22;47963;53.008;6.754;2022-11-15T14:36:16;12.30;99.90
62007;DHT22;47963;53.008;6.754;2022-11-15T14:38:42;12.20;99.90
62007;DHT22;47963;53.008;6.754;2022-11-15T14:41:22;12.20;99.90
62007;DHT22;47963;53.008;6.754;2022-11-15T14:43:48;12.10;99.90
62007;DHT22;47963;53.008;6.754;2022-11-15T14:46:14;12.10;99.90
62007;DHT22;47963;53.008;6.754;2022-11-15T14:48:40;12.00;99.90
62007;DHT22;47963;53.008;6.754;2022-11-15T14:51:17;12.00;99.90
62007;DHT22;47963;53.008;6.754;2022-11-15T14:53:47;12.00;99.90
62007;DHT22;47963;53.008;6.754;2022-11-15T14:56:13;12.00;99.90
62007;DHT22;47963;53.008;6.754;2022-11-15T14:58:40;11.90;99.90
62007;DHT22;47963;53.008;6.754;2022-11-15T15:01:24;11.90;99.90
62007;DHT22;47963;53.008;6.754;2022-11-15T15:03:51;11.80;99.90
62007;DHT22;47963;53.008;6.754;2022-11-15T15:06:18;11.80;99.90
62007;DHT22;47963;53.008;6.754;2022-11-15T15:08:44;11.80;99.90
62007;DHT22;47963;53.008;6.754;2022-11-15T15:11:16;11.70;99.90
62007;DHT22;47963;53.008;6.754;2022-11-15T15:13:44;11.70;99.90
62007;DHT22;47963;53.008;6.754;2022-11-15T15:16:09;11.60;99.90
62007;DHT22;47963;53.008;6.754;2022-11-15T15:18:35;11.60;99.90
62007;DHT22;47963;53.008;6.754;2022-11-15T15:21:01;11.50;99.90
62007;DHT22;47963;53.008;6.754;2022-11-15T15:23:32;11.50;99.90
62007;DHT22;47963;53.008;6.754;2022-11-15T15:25:59;11.40;99.90
62007;DHT22;47963;53.008;6.754;2022-11-15T15:28:24;11.40;99.90
62007;DHT22;47963;53.008;6.754;2022-11-15T15:30:50;11.30;99.90
62007;DHT22;47963;53.008;6.754;2022-11-15T15:33:16;11.30;99.90
62007;DHT22;47963;53.008;6.754;2022-11-15T15:35:42;11.30;99.90
62007;DHT22;47963;53.008;6.754;2022-11-15T15:38:11;11.30;99.90
62007;DHT22;47963;53.008;6.754;2022-11-15T15:40:36;11.20;99.90
62007;DHT22;47963;53.008;6.754;2022-11-15T15:43:02;11.30;99.90
62007;DHT22;47963;53.008;6.754;2022-11-15T15:45:28;11.30;99.90
62007;DHT22;47963;53.008;6.754;2022-11-15T15:47:55;11.20;99.90
62007;DHT22;47963;53.008;6.754;2022-11-15T15:50:25;11.20;99.90
62007;DHT22;47963;53.008;6.754;2022-11-15T15:52:52;11.20;99.90
62007;DHT22;47963;53.008;6.754;2022-11-15T15:55:18;11.20;99.90
62007;DHT22;47963;53.008;6.754;2022-11-15T15:57:44;11.20;99.90
62007;DHT22;47963;53.008;6.754;2022-11-15T16:00:10;11.20;99.90
62007;DHT22;47963;53.008;6.754;2022-11-15T16:02:36;11.10;99.90
62007;DHT22;47963;53.008;6.754;2022-11-15T16:05:02;11.10;99.90
62007;DHT22;47963;53.008;6.754;2022-11-15T16:07:28;11.10;99.90
62007;DHT22;47963;53.008;6.754;2022-11-15T16:09:54;11.00;99.90
62007;DHT22;47963;53.008;6.754;2022-11-15T16:12:31;11.00;99.90
62007;DHT22;47963;53.008;6.754;2022-11-15T16:14:57;11.00;99.90
62007;DHT22;47963;53.008;6.754;2022-11-15T16:17:25;11.00;99.90
62007;DHT22;47963;53.008;6.754;2022-11-15T16:19:51;11.00;99.90
62007;DHT22;47963;53.008;6.754;2022-11-15T16:22:17;11.00;99.90
62007;DHT22;47963;53.008;6.754;2022-11-15T16:24:42;11.00;99.90
62007;DHT22;47963;53.008;6.754;2022-11-15T16:27:15;11.00;99.90
62007;DHT22;47963;53.008;6.754;2022-11-15T16:29:42;11.00;99.90
62007;DHT22;47963;53.008;6.754;2022-11-15T16:32:08;11.00;99.90
62007;DHT22;47963;53.008;6.754;2022-11-15T16:34:33;11.00;99.90
62007;DHT22;47963;53.008;6.754;2022-11-15T16:36:59;11.00;99.90
62007;DHT22;47963;53.008;6.754;2022-11-15T16:39:25;11.00;99.90
62007;DHT22;47963;53.008;6.754;2022-11-15T16:41:53;11.00;99.90
62007;DHT22;47963;53.008;6.754;2022-11-15T16:44:18;11.00;99.90
62007;DHT22;47963;53.008;6.754;2022-11-15T16:46:44;11.00;99.90
62007;DHT22;47963;53.008;6.754;2022-11-15T16:49:16;10.90;99.90
62007;DHT22;47963;53.008;6.754;2022-11-15T16:51:44;10.90;99.90
62007;DHT22;47963;53.008;6.754;2022-11-15T16:54:11;10.90;99.90
62007;DHT22;47963;53.008;6.754;2022-11-15T16:56:37;10.90;99.90
62007;DHT22;47963;53.008;6.754;2022-11-15T16:59:04;10.90;99.90
62007;DHT22;47963;53.008;6.754;2022-11-15T17:01:32;10.90;99.90
62007;DHT22;47963;53.008;6.754;2022-11-15T17:04:00;11.00;99.90
62007;DHT22;47963;53.008;6.754;2022-11-15T17:06:38;10.90;99.90
62007;DHT22;47963;53.008;6.754;2022-11-15T17:09:04;10.90;99.90
62007;DHT22;47963;53.008;6.754;2022-11-15T17:11:30;10.90;99.90
62007;DHT22;47963;53.008;6.754;2022-11-15T17:13:58;11.00;99.90
62007;DHT22;47963;53.008;6.754;2022-11-15T17:16:25;11.00;99.90
62007;DHT22;47963;53.008;6.754;2022-11-15T17:18:51;11.00;99.90
62007;DHT22;47963;53.008;6.754;2022-11-15T17:21:19;11.00;99.90
62007;DHT22;47963;53.008;6.754;2022-11-15T17:23:48;11.00;99.90
62007;DHT22;47963;53.008;6.754;2022-11-15T17:26:15;10.90;99.90
62007;DHT22;47963;53.008;6.754;2022-11-15T17:28:41;10.90;99.90
62007;DHT22;47963;53.008;6.754;2022-11-15T17:31:11;10.90;99.90
62007;DHT22;47963;53.008;6.754;2022-11-15T17:33:37;10.90;99.90
62007;DHT22;47963;53.008;6.754;2022-11-15T17:36:07;10.90;99.90
62007;DHT22;47963;53.008;6.754;2022-11-15T17:38:33;10.90;99.90
62007;DHT22;47963;53.008;6.754;2022-11-15T17:41:00;10.90;99.90
62007;DHT22;47963;53.008;6.754;2022-11-15T17:43:27;10.90;99.90
62007;DHT22;47963;53.008;6.754;2022-11-15T17:45:53;10.90;99.90
62007;DHT22;47963;53.008;6.754;2022-11-15T17:48:18;10.90;99.90
62007;DHT22;47963;53.008;6.754;2022-11-15T17:50:58;10.90;99.90
62007;DHT22;47963;53.008;6.754;2022-11-15T17:53:25;10.90;99.90
62007;DHT22;47963;53.008;6.754;2022-11-15T17:55:51;10.90;99.90
62007;DHT22;47963;53.008;6.754;2022-11-15T17:58:17;10.90;99.90
62007;DHT22;47963;53.008;6.754;2022-11-15T18:00:46;10.90;99.90
62007;DHT22;47963;53.008;6.754;2022-11-15T18:03:13;10.80;99.90